createdAt,value
2019-05-09T00:01:25.435Z,14.22
2019-05-09T00:03:54.929Z,14.14
2019-05-09T00:06:24.470Z,14.05
2019-05-09T00:08:53.950Z,14.07
2019-05-09T00:11:24.611Z,14.16
2019-05-09T00:13:54.306Z,14.26
2019-05-09T00:16:23.812Z,14.30
2019-05-09T00:18:54.257Z,14.35
2019-05-09T00:21:35.240Z,14.46
2019-05-09T00:24:04.743Z,14.50
2019-05-09T00:26:34.249Z,14.52
2019-05-09T00:29:08.472Z,14.52
2019-05-09T00:31:48.427Z,14.57
2019-05-09T00:34:28.612Z,14.54
2019-05-09T00:36:58.118Z,14.52
2019-05-09T00:39:27.596Z,14.62
2019-05-09T00:41:57.130Z,14.62
2019-05-09T00:44:29.761Z,14.64
2019-05-09T00:47:05.715Z,14.62
2019-05-09T00:49:35.211Z,14.52
2019-05-09T00:52:04.714Z,14.55
2019-05-09T00:54:34.205Z,14.49
2019-05-09T00:57:03.705Z,14.48
2019-05-09T00:59:33.388Z,14.48
2019-05-09T01:02:03.885Z,14.39
2019-05-09T01:04:33.673Z,14.32
2019-05-09T01:07:03.568Z,14.29
2019-05-09T01:09:33.487Z,14.26
2019-05-09T01:12:03.980Z,14.30
2019-05-09T01:14:34.021Z,14.27
2019-05-09T01:17:04.206Z,14.24
2019-05-09T01:19:34.049Z,14.16
2019-05-09T01:22:04.507Z,14.06
2019-05-09T01:24:34.085Z,14.01
2019-05-09T01:27:03.880Z,14.00
2019-05-09T01:29:33.871Z,13.94
2019-05-09T01:32:07.070Z,13.97
2019-05-09T01:34:37.064Z,14.00
2019-05-09T01:37:07.715Z,13.86
2019-05-09T01:39:37.291Z,13.81
2019-05-09T01:42:06.888Z,13.78
2019-05-09T01:44:36.458Z,13.77
2019-05-09T01:47:05.964Z,13.75
2019-05-09T01:49:35.468Z,13.74
2019-05-09T01:52:05.245Z,13.72
2019-05-09T01:54:36.955Z,13.79
2019-05-09T01:57:06.526Z,13.79
2019-05-09T01:59:36.028Z,13.84
2019-05-09T02:02:08.552Z,13.85
2019-05-09T02:04:37.115Z,13.89
2019-05-09T02:07:06.654Z,13.81
2019-05-09T02:09:36.174Z,13.78
2019-05-09T02:12:05.742Z,13.76
2019-05-09T02:14:43.712Z,13.78
2019-05-09T02:17:34.801Z,13.77
2019-05-09T02:20:04.660Z,13.68
2019-05-09T02:22:34.807Z,13.72
2019-05-09T02:25:08.334Z,13.72
2019-05-09T02:27:37.829Z,13.70
2019-05-09T02:30:09.184Z,13.73
2019-05-09T02:32:38.694Z,13.73
2019-05-09T02:35:08.859Z,13.73
2019-05-09T02:37:39.197Z,13.82
2019-05-09T02:40:10.287Z,13.79
2019-05-09T02:42:40.314Z,13.78
2019-05-09T02:45:10.371Z,13.78
2019-05-09T02:47:39.847Z,13.81
2019-05-09T02:50:10.109Z,13.88
2019-05-09T02:52:40.213Z,13.86
2019-05-09T02:55:10.668Z,13.94
2019-05-09T02:57:40.562Z,14.03
2019-05-09T03:00:28.756Z,13.95
2019-05-09T03:03:08.954Z,13.87
2019-05-09T03:05:38.367Z,13.86
2019-05-09T03:08:09.460Z,13.90
2019-05-09T03:10:39.239Z,13.94
2019-05-09T03:13:09.464Z,13.91
2019-05-09T03:15:39.769Z,13.81
2019-05-09T03:18:09.546Z,13.74
2019-05-09T03:20:58.260Z,13.70
2019-05-09T03:23:28.525Z,13.75
2019-05-09T03:25:58.910Z,13.67
2019-05-09T03:28:40.622Z,13.66
2019-05-09T03:31:10.837Z,13.67
2019-05-09T03:33:41.055Z,13.65
2019-05-09T03:36:10.666Z,13.61
2019-05-09T03:38:40.180Z,13.61
2019-05-09T03:41:09.723Z,13.64
2019-05-09T03:43:39.265Z,13.67
2019-05-09T03:46:34.434Z,13.67
2019-05-09T03:49:04.366Z,13.58
2019-05-09T03:51:33.879Z,13.49
2019-05-09T03:54:03.405Z,13.42
2019-05-09T03:56:37.592Z,13.44
2019-05-09T03:59:08.286Z,13.47
2019-05-09T04:01:38.239Z,13.58
2019-05-09T04:04:08.790Z,13.54
2019-05-09T04:06:39.119Z,13.58
2019-05-09T04:09:08.915Z,13.57
2019-05-09T04:11:38.401Z,13.51
2019-05-09T04:14:11.964Z,13.56
2019-05-09T04:16:41.464Z,13.66
2019-05-09T04:19:10.978Z,13.65
2019-05-09T04:21:40.510Z,13.51
2019-05-09T04:24:10.357Z,13.41
2019-05-09T04:26:45.547Z,13.36
2019-05-09T04:29:15.071Z,13.29
2019-05-09T04:31:44.588Z,13.26
2019-05-09T04:34:14.076Z,13.24
2019-05-09T04:36:43.603Z,13.27
2019-05-09T04:39:21.052Z,13.26
2019-05-09T04:41:44.928Z,13.25
2019-05-09T04:44:38.361Z,13.34
2019-05-09T04:47:08.705Z,13.27
2019-05-09T04:49:41.099Z,13.31
2019-05-09T04:52:09.611Z,13.29
2019-05-09T04:54:39.118Z,13.32
2019-05-09T04:57:08.719Z,13.36
2019-05-09T04:59:38.552Z,13.34
2019-05-09T05:02:38.028Z,13.39
2019-05-09T05:05:07.971Z,13.33
2019-05-09T05:07:37.694Z,13.28
2019-05-09T05:10:08.953Z,13.27
2019-05-09T05:12:40.356Z,13.22
2019-05-09T05:15:10.150Z,13.20
2019-05-09T05:17:39.666Z,13.15
2019-05-09T05:20:12.844Z,13.10
2019-05-09T05:22:50.961Z,13.09
2019-05-09T05:25:20.490Z,13.19
2019-05-09T05:27:50.005Z,13.17
2019-05-09T05:30:19.675Z,13.23
2019-05-09T05:33:01.980Z,13.36
2019-05-09T05:35:43.434Z,13.43
2019-05-09T05:38:13.012Z,13.48
2019-05-09T05:40:46.321Z,13.67
2019-05-09T05:43:13.741Z,13.72
2019-05-09T05:45:55.414Z,13.66
2019-05-09T05:48:28.033Z,13.67
2019-05-09T05:50:57.869Z,13.75
2019-05-09T05:53:27.845Z,13.83
2019-05-09T05:55:58.196Z,13.90
2019-05-09T05:58:28.331Z,13.85
2019-05-09T06:00:58.925Z,14.07
2019-05-09T06:03:28.595Z,14.13
2019-05-09T06:05:58.596Z,14.12
2019-05-09T06:08:28.211Z,14.09
2019-05-09T06:10:57.813Z,14.12
2019-05-09T06:13:27.608Z,14.17
2019-05-09T06:15:58.643Z,14.20
2019-05-09T06:18:28.253Z,14.23
2019-05-09T06:20:58.457Z,14.20
2019-05-09T06:23:28.346Z,14.23
2019-05-09T06:25:58.728Z,14.38
2019-05-09T06:28:28.573Z,14.69
2019-05-09T06:30:58.608Z,15.02
2019-05-09T06:33:28.696Z,15.23
2019-05-09T06:35:59.066Z,15.06
2019-05-09T06:38:28.646Z,15.06
2019-05-09T06:40:58.375Z,15.31
2019-05-09T06:43:30.554Z,15.44
2019-05-09T06:46:15.372Z,15.53
2019-05-09T06:48:44.881Z,15.66
2019-05-09T06:51:17.854Z,15.54
2019-05-09T06:53:45.599Z,15.57
2019-05-09T06:56:15.107Z,15.53
2019-05-09T06:58:44.641Z,15.48
2019-05-09T07:01:19.981Z,15.58
2019-05-09T07:03:51.500Z,15.81
2019-05-09T07:06:28.305Z,15.98
2019-05-09T07:09:08.389Z,16.03
2019-05-09T07:11:38.199Z,16.24
2019-05-09T07:14:10.119Z,16.39
2019-05-09T07:16:39.623Z,16.37
2019-05-09T07:19:09.146Z,16.49
2019-05-09T07:21:57.938Z,16.67
2019-05-09T07:24:28.727Z,16.57
2019-05-09T07:26:58.444Z,16.70
2019-05-09T07:29:28.798Z,16.82
2019-05-09T07:32:07.779Z,17.00
2019-05-09T07:34:49.851Z,17.07
2019-05-09T07:37:19.439Z,17.02
2019-05-09T07:39:48.958Z,17.02
2019-05-09T07:42:19.428Z,17.19
2019-05-09T07:44:52.308Z,17.28
2019-05-09T07:47:20.089Z,17.49
2019-05-09T07:49:49.604Z,17.35
2019-05-09T07:52:19.094Z,17.14
2019-05-09T07:54:48.891Z,17.24
2019-05-09T07:57:19.150Z,17.44
2019-05-09T07:59:48.733Z,17.52
2019-05-09T08:02:18.520Z,17.76
2019-05-09T08:04:48.850Z,17.72
2019-05-09T08:07:18.547Z,17.74
2019-05-09T08:09:48.051Z,17.83
2019-05-09T08:12:18.007Z,17.76
2019-05-09T08:15:06.605Z,17.72
2019-05-09T08:17:18.691Z,17.83
2019-05-09T08:19:48.562Z,18.05
2019-05-09T08:22:24.597Z,18.05
2019-05-09T08:24:49.468Z,17.98
2019-05-09T08:27:19.120Z,18.03
2019-05-09T08:29:48.670Z,17.88
2019-05-09T08:32:18.221Z,17.87
2019-05-09T08:34:48.733Z,18.05
2019-05-09T08:37:18.211Z,18.15
2019-05-09T08:39:48.462Z,18.26
2019-05-09T08:42:20.084Z,18.01
2019-05-09T08:44:49.418Z,18.21
2019-05-09T08:47:18.918Z,18.27
2019-05-09T08:50:13.606Z,18.36
2019-05-09T08:52:43.161Z,18.44
2019-05-09T08:55:13.726Z,18.44
2019-05-09T08:57:43.294Z,18.72
2019-05-09T09:00:13.631Z,18.80
2019-05-09T09:02:43.114Z,18.62
2019-05-09T09:05:14.061Z,18.41
2019-05-09T09:07:43.891Z,18.28
2019-05-09T09:10:13.869Z,18.26
2019-05-09T09:12:43.336Z,18.35
2019-05-09T09:15:14.420Z,18.28
2019-05-09T09:17:45.435Z,18.23
2019-05-09T09:20:15.054Z,18.39
2019-05-09T09:22:44.840Z,18.67
2019-05-09T09:25:14.318Z,18.60
2019-05-09T09:27:43.802Z,18.83
2019-05-09T09:30:20.250Z,19.08
2019-05-09T09:32:44.805Z,19.35
2019-05-09T09:35:15.350Z,19.36
2019-05-09T09:37:49.520Z,19.44
2019-05-09T09:40:18.105Z,19.48
2019-05-09T09:42:49.047Z,19.54
2019-05-09T09:45:19.625Z,19.55
2019-05-09T09:47:49.198Z,19.50
2019-05-09T09:50:18.838Z,19.63
2019-05-09T09:52:49.267Z,19.85
2019-05-09T09:55:18.834Z,20.21
2019-05-09T09:57:50.172Z,20.27
2019-05-09T10:00:49.114Z,20.57
2019-05-09T10:03:18.844Z,20.63
2019-05-09T10:05:48.750Z,20.82
2019-05-09T10:08:18.505Z,20.91
2019-05-09T10:10:48.565Z,20.84
2019-05-09T10:13:18.833Z,20.69
2019-05-09T10:16:26.604Z,20.59
2019-05-09T10:18:52.357Z,20.54
2019-05-09T10:21:27.512Z,20.32
2019-05-09T10:23:57.530Z,19.90
2019-05-09T10:26:28.496Z,19.91
2019-05-09T10:28:58.181Z,19.88
2019-05-09T10:31:28.361Z,19.89
2019-05-09T10:33:58.163Z,19.67
2019-05-09T10:36:28.074Z,19.83
2019-05-09T10:38:58.436Z,19.88
2019-05-09T10:41:28.532Z,20.23
2019-05-09T10:44:08.328Z,20.36
2019-05-09T10:46:57.090Z,20.56
2019-05-09T10:49:24.259Z,20.81
2019-05-09T10:51:53.824Z,20.54
2019-05-09T10:54:23.324Z,20.54
2019-05-09T10:56:52.959Z,20.60
2019-05-09T10:59:22.605Z,20.68
2019-05-09T11:01:52.160Z,20.90
2019-05-09T11:04:21.679Z,20.96
2019-05-09T11:06:51.230Z,20.84
2019-05-09T11:09:20.881Z,20.67
2019-05-09T11:11:50.448Z,20.57
2019-05-09T11:14:32.478Z,20.61
2019-05-09T11:17:06.866Z,20.25
2019-05-09T11:19:23.597Z,20.08
2019-05-09T11:21:54.075Z,20.00
2019-05-09T11:24:38.855Z,20.04
2019-05-09T11:26:55.052Z,19.75
2019-05-09T11:29:24.584Z,19.72
2019-05-09T11:31:54.277Z,19.99
2019-05-09T11:34:23.845Z,20.19
2019-05-09T11:36:53.371Z,20.43
2019-05-09T11:39:35.564Z,20.59
2019-05-09T11:41:54.218Z,20.68
2019-05-09T11:44:23.729Z,20.73
2019-05-09T11:46:53.249Z,20.92
2019-05-09T11:49:22.799Z,20.83
2019-05-09T11:51:52.300Z,20.87
2019-05-09T11:54:21.942Z,21.18
2019-05-09T11:56:51.511Z,21.22
2019-05-09T11:59:21.060Z,21.16
2019-05-09T12:01:50.510Z,21.03
2019-05-09T12:04:20.028Z,21.11
2019-05-09T12:06:49.635Z,21.10
2019-05-09T12:09:19.130Z,20.68
2019-05-09T12:11:48.647Z,20.68
2019-05-09T12:14:18.174Z,20.60
2019-05-09T12:16:48.231Z,20.80
2019-05-09T12:19:18.222Z,20.92
2019-05-09T12:21:48.507Z,20.89
2019-05-09T12:24:18.533Z,20.95
2019-05-09T12:26:48.818Z,21.02
2019-05-09T12:29:19.585Z,20.75
2019-05-09T12:31:49.471Z,20.92
2019-05-09T12:34:19.570Z,20.88
2019-05-09T12:36:49.831Z,21.06
2019-05-09T12:39:19.746Z,21.19
2019-05-09T12:41:49.329Z,21.32
2019-05-09T12:44:18.875Z,21.64
2019-05-09T12:46:48.993Z,21.38
2019-05-09T12:49:19.187Z,21.25
2019-05-09T12:51:48.884Z,21.34
2019-05-09T12:54:19.169Z,21.04
2019-05-09T12:56:48.898Z,20.74
2019-05-09T12:59:18.832Z,20.73
2019-05-09T13:01:49.446Z,20.91
2019-05-09T13:04:19.135Z,21.13
2019-05-09T13:06:49.130Z,21.16
2019-05-09T13:09:18.665Z,20.93
2019-05-09T13:11:48.444Z,20.89
2019-05-09T13:14:19.440Z,20.70
2019-05-09T13:17:10.805Z,20.71
2019-05-09T13:19:44.319Z,20.66
2019-05-09T13:22:14.391Z,20.83
2019-05-09T13:24:44.008Z,21.05
2019-05-09T13:27:14.269Z,21.24
2019-05-09T13:29:43.986Z,21.19
2019-05-09T13:32:13.484Z,21.00
2019-05-09T13:34:44.168Z,20.85
2019-05-09T13:37:13.677Z,20.75
2019-05-09T13:39:43.837Z,20.97
2019-05-09T13:42:14.395Z,21.29
2019-05-09T13:44:43.903Z,21.36
2019-05-09T13:47:13.411Z,21.07
2019-05-09T13:49:44.030Z,20.96
2019-05-09T13:52:13.535Z,20.96
2019-05-09T13:54:43.377Z,20.85
2019-05-09T13:57:12.965Z,20.92
2019-05-09T13:59:42.540Z,21.03
2019-05-09T14:02:12.082Z,21.19
2019-05-09T14:04:41.719Z,21.42
2019-05-09T14:07:11.235Z,21.62
2019-05-09T14:09:40.764Z,21.67
2019-05-09T14:12:10.557Z,21.49
2019-05-09T14:14:40.190Z,21.35
2019-05-09T14:17:13.919Z,21.24
2019-05-09T14:19:46.768Z,21.23
2019-05-09T14:22:13.949Z,21.27
2019-05-09T14:24:43.496Z,21.28
2019-05-09T14:27:13.094Z,21.31
2019-05-09T14:29:42.608Z,21.70
2019-05-09T14:32:12.163Z,22.00
2019-05-09T14:34:42.676Z,22.09
2019-05-09T14:37:12.882Z,22.18
2019-05-09T14:39:54.871Z,21.98
2019-05-09T14:42:13.644Z,22.36
2019-05-09T14:44:43.173Z,22.22
2019-05-09T14:47:17.673Z,22.23
2019-05-09T14:49:49.726Z,21.99
2019-05-09T14:52:18.231Z,21.48
2019-05-09T14:54:48.357Z,21.11
2019-05-09T14:57:17.934Z,21.05
2019-05-09T14:59:47.466Z,21.02
2019-05-09T15:02:17.921Z,21.05
2019-05-09T15:04:48.608Z,21.06
2019-05-09T15:07:19.404Z,21.07
2019-05-09T15:09:49.154Z,21.04
2019-05-09T15:12:18.733Z,20.91
2019-05-09T15:14:48.238Z,20.78
2019-05-09T15:17:18.543Z,20.63
2019-05-09T15:19:57.453Z,20.63
2019-05-09T15:22:19.461Z,20.59
2019-05-09T15:24:48.963Z,20.54
2019-05-09T15:27:18.532Z,20.43
2019-05-09T15:29:48.700Z,20.57
2019-05-09T15:32:18.490Z,20.75
2019-05-09T15:34:48.032Z,20.81
2019-05-09T15:37:18.608Z,20.79
2019-05-09T15:39:48.638Z,20.99
2019-05-09T15:42:18.415Z,21.21
2019-05-09T15:44:48.048Z,21.37
2019-05-09T15:47:21.969Z,21.42
2019-05-09T15:49:52.526Z,21.31
2019-05-09T15:52:22.047Z,21.28
2019-05-09T15:54:51.577Z,21.15
2019-05-09T15:57:21.079Z,21.02
2019-05-09T15:59:50.749Z,20.94
2019-05-09T16:02:20.442Z,20.69
2019-05-09T16:04:50.057Z,20.40
2019-05-09T16:07:19.555Z,20.14
2019-05-09T16:09:49.064Z,20.00
2019-05-09T16:12:18.673Z,19.85
2019-05-09T16:14:48.731Z,19.75
2019-05-09T16:17:19.060Z,19.67
2019-05-09T16:19:49.849Z,19.81
2019-05-09T16:22:19.399Z,19.87
2019-05-09T16:24:48.933Z,19.83
2019-05-09T16:27:18.541Z,19.66
2019-05-09T16:29:48.680Z,19.57
2019-05-09T16:32:19.220Z,19.54
2019-05-09T16:34:48.722Z,19.55
2019-05-09T16:37:18.350Z,19.65
2019-05-09T16:39:47.846Z,19.61
2019-05-09T16:42:17.422Z,19.58
2019-05-09T16:44:48.154Z,19.49
2019-05-09T16:47:21.540Z,19.37
2019-05-09T16:49:49.976Z,19.27
2019-05-09T16:52:19.481Z,19.28
2019-05-09T16:54:50.957Z,19.23
2019-05-09T16:57:20.435Z,19.17
2019-05-09T16:59:49.939Z,19.11
2019-05-09T17:02:24.670Z,19.19
2019-05-09T17:04:50.607Z,19.13
2019-05-09T17:07:20.092Z,19.14
2019-05-09T17:09:49.685Z,19.12
2019-05-09T17:12:19.259Z,19.01
2019-05-09T17:14:48.793Z,19.03
2019-05-09T17:17:18.290Z,19.12
2019-05-09T17:19:48.251Z,19.12
2019-05-09T17:22:24.013Z,19.06
2019-05-09T17:24:53.596Z,19.00
2019-05-09T17:27:23.080Z,18.97
2019-05-09T17:29:52.582Z,18.90
2019-05-09T17:32:22.160Z,18.80
2019-05-09T17:34:51.704Z,18.70
2019-05-09T17:37:21.199Z,18.63
2019-05-09T17:39:50.713Z,18.54
2019-05-09T17:42:20.215Z,18.51
2019-05-09T17:44:50.738Z,18.44
2019-05-09T17:47:20.223Z,18.45
2019-05-09T17:49:49.723Z,18.42
2019-05-09T17:52:19.316Z,18.42
2019-05-09T17:54:48.832Z,18.38
2019-05-09T17:57:18.899Z,18.33
2019-05-09T17:59:49.026Z,18.31
2019-05-09T18:02:18.565Z,18.32
2019-05-09T18:04:49.131Z,18.31
2019-05-09T18:07:18.697Z,18.28
2019-05-09T18:09:48.548Z,18.26
2019-05-09T18:12:18.948Z,18.19
2019-05-09T18:14:48.799Z,18.24
2019-05-09T18:17:18.780Z,18.27
2019-05-09T18:19:48.285Z,18.33
2019-05-09T18:22:18.584Z,18.47
2019-05-09T18:24:48.435Z,18.54
2019-05-09T18:27:18.986Z,18.59
2019-05-09T18:29:48.561Z,18.62
2019-05-09T18:32:34.688Z,18.61
2019-05-09T18:35:11.354Z,18.61
2019-05-09T18:37:40.904Z,18.66
2019-05-09T18:40:10.779Z,18.66
2019-05-09T18:42:40.267Z,18.56
2019-05-09T18:45:10.125Z,18.53
2019-05-09T18:47:40.630Z,18.43
2019-05-09T18:50:10.610Z,18.36
2019-05-09T18:52:40.170Z,18.32
2019-05-09T18:55:11.191Z,18.29
2019-05-09T18:57:40.687Z,18.27
2019-05-09T19:00:11.543Z,18.21
2019-05-09T19:02:41.573Z,18.16
2019-05-09T19:05:13.149Z,18.12
2019-05-09T19:07:42.771Z,18.14
2019-05-09T19:10:14.231Z,18.03
2019-05-09T19:12:43.913Z,17.87
2019-05-09T19:15:23.237Z,17.71
2019-05-09T19:18:10.743Z,17.75
2019-05-09T19:20:48.208Z,17.59
2019-05-09T19:23:17.731Z,17.49
2019-05-09T19:25:47.229Z,17.48
2019-05-09T19:28:16.745Z,17.51
2019-05-09T19:30:46.278Z,17.54
2019-05-09T19:33:15.849Z,17.59
2019-05-09T19:35:45.435Z,17.70
2019-05-09T19:38:14.953Z,17.67
2019-05-09T19:40:44.475Z,17.58
2019-05-09T19:43:14.970Z,17.48
2019-05-09T19:45:45.423Z,17.44
2019-05-09T19:48:14.943Z,17.38
2019-05-09T19:50:44.521Z,17.30
2019-05-09T19:53:14.040Z,17.28
2019-05-09T19:55:43.538Z,17.18
2019-05-09T19:58:13.047Z,17.09
2019-05-09T20:00:42.556Z,17.07
2019-05-09T20:03:12.060Z,16.90
2019-05-09T20:05:41.555Z,16.88
2019-05-09T20:08:11.046Z,16.91
2019-05-09T20:11:05.597Z,16.92
2019-05-09T20:13:54.140Z,16.88
2019-05-09T20:16:23.663Z,16.78
2019-05-09T20:18:53.254Z,16.80
2019-05-09T20:21:22.859Z,16.78
2019-05-09T20:23:52.348Z,16.78
2019-05-09T20:26:21.879Z,16.75
2019-05-09T20:28:52.383Z,16.71
2019-05-09T20:31:22.854Z,16.68
2019-05-09T20:33:52.375Z,16.65
2019-05-09T20:36:21.858Z,16.67
2019-05-09T20:38:51.637Z,16.70
2019-05-09T20:41:21.318Z,16.67
2019-05-09T20:43:51.003Z,16.60
2019-05-09T20:46:20.788Z,16.53
2019-05-09T20:48:50.563Z,16.48
2019-05-09T20:51:20.281Z,16.42
2019-05-09T20:53:49.964Z,16.44
2019-05-09T20:56:19.631Z,16.42
2019-05-09T20:58:49.299Z,16.39
2019-05-09T21:01:18.967Z,16.38
2019-05-09T21:03:59.735Z,16.19
2019-05-09T21:06:20.078Z,16.02
2019-05-09T21:08:49.777Z,15.89
2019-05-09T21:11:19.458Z,15.89
2019-05-09T21:13:49.156Z,16.07
2019-05-09T21:16:18.844Z,16.17
2019-05-09T21:18:48.615Z,16.25
2019-05-09T21:21:18.293Z,16.29
2019-05-09T21:23:48.475Z,16.36
2019-05-09T21:26:18.158Z,16.05
2019-05-09T21:28:48.821Z,16.42
2019-05-09T21:31:18.500Z,16.45
2019-05-09T21:33:48.214Z,16.41
2019-05-09T21:36:17.716Z,16.30
2019-05-09T21:38:47.273Z,16.16
2019-05-09T21:41:16.795Z,16.01
2019-05-09T21:43:47.275Z,15.96
2019-05-09T21:46:16.845Z,15.97
2019-05-09T21:48:46.386Z,16.00
2019-05-09T21:51:15.918Z,16.06
2019-05-09T21:53:45.426Z,16.07
2019-05-09T21:56:14.988Z,16.11
2019-05-09T21:58:44.505Z,16.14
2019-05-09T22:01:16.432Z,16.07
2019-05-09T22:03:46.055Z,16.06
2019-05-09T22:06:15.547Z,16.08
2019-05-09T22:08:45.138Z,15.99
2019-05-09T22:11:14.697Z,15.88
2019-05-09T22:13:44.225Z,15.81
2019-05-09T22:16:13.843Z,15.76
2019-05-09T22:18:43.429Z,15.80
2019-05-09T22:21:21.620Z,15.77
2019-05-09T22:23:56.636Z,15.72
2019-05-09T22:26:23.038Z,15.71
2019-05-09T22:28:52.556Z,15.61
2019-05-09T22:31:22.028Z,15.52
2019-05-09T22:33:51.533Z,15.53
2019-05-09T22:36:21.041Z,15.42
2019-05-09T22:38:50.706Z,15.37
2019-05-09T22:41:20.222Z,15.35
2019-05-09T22:43:49.729Z,15.37
2019-05-09T22:46:19.218Z,15.41
2019-05-09T22:48:48.750Z,15.42
2019-05-09T22:51:18.281Z,15.43
2019-05-09T22:53:47.787Z,15.45
2019-05-09T22:56:18.515Z,15.44
2019-05-09T22:58:48.035Z,15.36
2019-05-09T23:01:17.627Z,15.27
2019-05-09T23:03:47.216Z,15.20
2019-05-09T23:06:17.610Z,15.10
2019-05-09T23:08:47.521Z,14.98
2019-05-09T23:11:17.269Z,14.91
2019-05-09T23:13:53.007Z,14.96
2019-05-09T23:16:23.688Z,15.00
2019-05-09T23:18:53.470Z,15.06
2019-05-09T23:21:24.264Z,15.05
2019-05-09T23:23:57.408Z,15.07
2019-05-09T23:26:26.951Z,14.95
2019-05-09T23:28:56.519Z,14.82
2019-05-09T23:31:37.175Z,14.73
2019-05-09T23:34:06.721Z,14.67
2019-05-09T23:36:36.237Z,14.54
2019-05-09T23:39:14.000Z,14.57
2019-05-09T23:41:43.534Z,14.55
2019-05-09T23:44:13.119Z,14.50
2019-05-09T23:46:42.627Z,14.48
2019-05-09T23:49:12.205Z,14.53
2019-05-09T23:51:48.785Z,14.56
2019-05-09T23:54:45.982Z,14.53
2019-05-09T23:57:27.096Z,14.52
